Time;durP1;ratioP1;P1;durP2;ratioP2;P2;SDS_P1;SDS_P2;PMS_P1;PMS_P2;Temp;Humidity;BMP_temperature;BMP_pressure;BME280_temperature;BME280_humidity;BME280_pressure;Samples;Min_cycle;Max_cycle;Signal;HPM_P1;HPM_P2
2023/06/03 00:01:23;;;;;;;11.90;10.80;;;;;;;17.02;100.00;-18224.09;6244443;23;20157;-62
2023/06/03 00:03:50;;;;;;;14.53;13.10;;;;;;;16.90;100.00;-18223.13;6244569;23;20157;-64
2023/06/03 00:06:17;;;;;;;13.00;11.90;;;;;;;16.91;100.00;-17900.47;6244521;23;20161;-62
2023/06/03 00:08:44;;;;;;;13.27;12.13;;;;;;;16.96;100.00;-17580.47;6244680;23;20201;-61
2023/06/03 00:11:13;;;;;;;12.67;11.70;;;;;;;16.55;100.00;-17571.28;6244832;23;20495;-63
2023/06/03 00:13:42;;;;;;;11.97;11.07;;;;;;;16.81;100.00;-17577.25;6244256;23;20161;-62
2023/06/03 00:16:09;;;;;;;12.80;11.80;;;;;;;16.92;100.00;-17579.66;6244315;23;20168;-62
2023/06/03 00:18:36;;;;;;;11.43;10.40;;;;;;;16.63;100.00;-17573.13;6244161;23;20171;-62
2023/06/03 00:21:04;;;;;;;11.37;10.87;;;;;;;16.92;100.00;-17579.66;6244604;23;20159;-61
2023/06/03 00:23:31;;;;;;;9.63;9.00;;;;;;;17.07;100.00;-17582.97;6244163;23;20519;-62
2023/06/03 00:26:00;;;;;;;12.10;10.50;;;;;;;17.17;100.00;-17264.06;6244474;23;20163;-62
2023/06/03 00:28:27;;;;;;;11.10;10.07;;;;;;;17.31;100.00;-17267.31;6244398;23;20163;-62
2023/06/03 00:30:55;;;;;;;10.27;9.43;;;;;;;17.34;100.00;-15661.06;6244174;23;20157;-63
2023/06/03 00:33:22;;;;;;;9.93;9.17;;;;;;;17.45;100.00;-13089.88;6244746;23;20157;-63
2023/06/03 00:35:49;;;;;;;9.03;8.50;;;;;;;17.32;100.00;-8903.03;6244226;23;20161;-62
2023/06/03 00:38:16;;;;;;;10.40;9.60;;;;;;;17.27;100.00;-6002.44;6244520;23;20642;-61
2023/06/03 00:40:43;;;;;;;21.37;12.17;;;;;;;17.27;100.00;-8902.63;6244345;23;20631;-62
2023/06/03 00:43:10;;;;;;;12.93;11.20;;;;;;;17.23;100.00;-10512.19;6244030;23;20204;-62
2023/06/03 00:45:37;;;;;;;12.03;11.23;;;;;;;17.29;100.00;-11478.59;6244676;23;20157;-62
2023/06/03 00:48:06;;;;;;;12.50;11.40;;;;;;;17.23;100.00;-12121.44;6244488;23;20156;-62
2023/06/03 00:50:35;;;;;;;13.67;11.80;;;;;;;17.12;100.00;-12763.22;6243896;23;20160;-62
2023/06/03 00:53:03;;;;;;;12.17;11.00;;;;;;;17.05;100.00;-14048.25;6244039;23;20157;-62
2023/06/03 00:55:30;;;;;;;13.33;12.00;;;;;;;17.08;100.00;-14691.69;6244233;23;20156;-62
2023/06/03 00:57:57;;;;;;;12.03;11.27;;;;;;;17.08;100.00;-15013.19;6243756;23;20171;-62
2023/06/03 01:00:25;;;;;;;11.90;10.73;;;;;;;17.06;100.00;-13405.47;6243608;23;20187;-61
2023/06/03 01:02:52;;;;;;;18.40;11.83;;;;;;;17.03;100.00;-11475.25;6244256;23;20630;-62
2023/06/03 01:05:20;;;;;;;13.87;11.73;;;;;;;17.04;100.00;-10831.81;6243896;23;20165;-62
2023/06/03 01:08:01;;;;;;;12.40;11.10;;;;;;;16.96;100.00;-9865.47;6244763;23;20662;-62
2023/06/03 01:10:37;;;;;;;10.07;9.37;;;;;;;17.05;100.00;-7290.34;6243807;23;20243;-61
2023/06/03 01:13:11;;;;;;;16.10;10.17;;;;;;;16.92;100.00;-6967.44;6244063;23;20163;-62
2023/06/03 01:15:43;;;;;;;11.53;10.27;;;;;;;16.71;100.00;-9219.47;6244274;23;20599;-61
2023/06/03 01:18:12;;;;;;;11.13;10.13;;;;;;;16.76;100.00;-9219.94;6243989;23;20164;-61
2023/06/03 01:20:42;;;;;;;11.27;9.97;;;;;;;16.79;100.00;-8576.50;6244035;23;20268;-62
2023/06/03 01:23:20;;;;;;;10.90;10.10;;;;;;;16.76;100.00;-7288.53;6244138;23;20484;-62
2023/06/03 01:25:50;;;;;;;10.47;9.53;;;;;;;16.67;100.00;-7609.88;6244087;23;20195;-62
2023/06/03 01:28:18;;;;;;;11.50;10.43;;;;;;;16.66;100.00;-8575.38;6244244;23;20592;-62
2023/06/03 01:30:45;;;;;;;11.30;10.17;;;;;;;16.47;100.00;-10182.00;6243727;23;20207;-62
2023/06/03 01:33:13;;;;;;;10.43;9.63;;;;;;;16.06;100.00;-11141.44;6244358;23;20488;-62
2023/06/03 01:35:41;;;;;;;13.17;9.97;;;;;;;16.19;100.00;-11785.59;6244080;23;20547;-61
2023/06/03 01:38:09;;;;;;;8.53;7.97;;;;;;;16.24;100.00;-11143.72;6243749;23;20157;-62
2023/06/03 01:40:37;;;;;;;8.70;7.50;;;;;;;16.19;100.00;-8571.47;6244034;23;20223;-63
2023/06/03 01:43:04;;;;;;;8.20;7.67;;;;;;;16.21;100.00;-5354.22;6244420;23;20205;-62
2023/06/03 01:45:31;;;;;;;8.40;7.60;;;;;;;16.22;100.00;-4388.41;6217601;23;20493;-61
2023/06/03 01:47:58;;;;;;;9.10;8.20;;;;;;;16.16;100.00;-2778.06;6243667;23;20199;-62
2023/06/03 01:50:25;;;;;;;9.17;8.33;;;;;;;16.03;100.00;-1811.88;6244124;23;20592;-62
2023/06/03 01:52:52;;;;;;;9.00;8.00;;;;;;;15.95;100.00;-2456.22;6243659;23;20161;-62
2023/06/03 01:55:19;;;;;;;9.53;8.33;;;;;;;15.96;100.00;-3100.25;6243395;23;20175;-62
2023/06/03 01:57:48;;;;;;;10.90;7.23;;;;;;;15.96;100.00;-4387.97;6243570;23;20157;-62
2023/06/03 02:00:16;;;;;;;9.03;8.17;;;;;;;15.89;100.00;-5674.94;6243676;23;20212;-61
2023/06/03 02:02:43;;;;;;;8.30;7.50;;;;;;;15.81;100.00;-4387.72;6243552;23;20165;-62
2023/06/03 02:05:10;;;;;;;7.57;7.07;;;;;;;15.55;100.00;-6316.66;6243544;23;20244;-62
2023/06/03 02:07:37;;;;;;;8.80;7.97;;;;;;;15.40;100.00;-7601.25;6243725;23;20239;-62
2023/06/03 02:10:07;;;;;;;9.20;8.40;;;;;;;15.32;100.00;-8243.09;6243500;23;20199;-61
2023/06/03 02:12:33;;;;;;;9.37;8.37;;;;;;;15.18;100.00;-8241.94;6244485;23;20161;-62
2023/06/03 02:15:02;;;;;;;9.93;7.30;;;;;;;15.25;100.00;-8563.59;6245155;23;20167;-62
2023/06/03 02:17:29;;;;;;;8.60;7.87;;;;;;;15.42;100.00;-8565.06;6245540;23;20197;-62
2023/06/03 02:19:57;;;;;;;9.07;8.20;;;;;;;15.56;100.00;-8244.94;6245320;23;20192;-62
2023/06/03 02:22:24;;;;;;;12.20;9.00;;;;;;;15.66;100.00;-7924.41;6245480;23;20161;-62
2023/06/03 02:24:52;;;;;;;15.67;8.53;;;;;;;15.74;100.00;-6317.56;6245389;23;20161;-62
2023/06/03 02:27:20;;;;;;;13.00;8.43;;;;;;;15.62;100.00;-4387.41;6245195;23;20201;-62
2023/06/03 02:29:50;;;;;;;13.43;7.97;;;;;;;15.69;100.00;-3744.00;6245197;23;20218;-61
2023/06/03 02:32:19;;;;;;;7.83;7.30;;;;;;;15.67;100.00;-2456.63;6245526;23;20157;-62
2023/06/03 02:34:46;;;;;;;8.53;7.83;;;;;;;15.74;100.00;-202.13;6245082;23;20245;-62
2023/06/03 02:37:13;;;;;;;10.30;7.60;;;;;;;15.77;100.00;-201.97;6245761;23;20584;-62
2023/06/03 02:39:40;;;;;;;11.07;7.77;;;;;;;15.73;100.00;119.97;6245442;23;20187;-61
2023/06/03 02:42:08;;;;;;;10.83;8.73;;;;;;;15.48;100.00;-5673.41;6244906;23;20247;-61
2023/06/03 02:44:35;;;;;;;8.23;7.43;;;;;;;15.26;100.00;-7600.28;6245251;23;20157;-62
2023/06/03 02:47:02;;;;;;;8.80;7.60;;;;;;;15.30;100.00;-6636.78;6245444;23;20560;-62
2023/06/03 02:49:30;;;;;;;8.87;7.83;;;;;;;15.39;100.00;-6315.91;6245219;23;20240;-61
2023/06/03 02:51:58;;;;;;;9.07;7.67;;;;;;;15.54;100.00;-5995.16;6245380;23;20241;-63
2023/06/03 02:54:25;;;;;;;10.43;7.93;;;;;;;15.68;100.00;-5352.53;6245386;23;20465;-62
2023/06/03 02:56:52;;;;;;;9.43;7.17;;;;;;;15.89;100.00;-5031.44;6245470;23;20596;-62
2023/06/03 02:59:19;;;;;;;9.57;7.97;;;;;;;15.53;100.00;-2456.81;6245459;23;20187;-62
2023/06/03 03:01:46;;;;;;;13.60;8.00;;;;;;;16.01;100.00;443.91;6245257;23;20191;-62
2023/06/03 03:04:13;;;;;;;9.43;7.63;;;;;;;16.09;100.00;2702.03;6218562;23;20157;-62
2023/06/03 03:06:42;;;;;;;7.77;7.27;;;;;;;16.29;100.00;8518.28;6244988;23;20219;-62
2023/06/03 03:09:09;;;;;;;13.60;8.00;;;;;;;16.40;100.00;15318.00;6245008;23;20157;-62
2023/06/03 03:11:36;;;;;;;9.37;7.90;;;;;;;16.58;100.00;18890.72;6244794;23;20235;-62
2023/06/03 03:14:03;;;;;;;15.83;8.33;;;;;;;16.92;100.00;22800.69;6245022;23;20226;-62
2023/06/03 03:16:30;;;;;;;8.40;7.90;;;;;;;17.31;100.00;40426.34;6244686;23;20172;-62
2023/06/03 03:18:57;;;;;;;9.33;8.50;;;;;;;17.74;100.00;50614.97;6245214;23;20571;-62
2023/06/03 03:21:24;;;;;;;12.57;10.80;;;;;;;18.03;100.00;64457.81;6244617;23;20184;-62
2023/06/03 03:23:52;;;;;;;12.43;10.87;;;;;;;17.80;100.00;65092.06;6245087;23;20164;-62
2023/06/03 03:26:22;;;;;;;12.00;11.30;;;;;;;17.76;100.00;54228.69;6245184;23;20590;-62
2023/06/03 03:28:50;;;;;;;12.13;11.00;;;;;;;17.57;100.00;36195.03;6245079;23;20592;-62
2023/06/03 03:31:18;;;;;;;12.60;10.10;;;;;;;17.54;100.00;34560.53;6245221;23;20164;-62
2023/06/03 03:33:45;;;;;;;10.00;8.93;;;;;;;17.28;100.00;18915.84;6244755;23;20161;-62
2023/06/03 03:36:13;;;;;;;13.77;8.90;;;;;;;17.31;100.00;17292.88;6245348;23;20168;-62
2023/06/03 03:38:40;;;;;;;12.73;9.53;;;;;;;17.49;100.00;19898.06;6244687;23;20168;-62
2023/06/03 03:41:09;;;;;;;17.20;10.60;;;;;;;17.64;100.00;23807.69;6244914;23;20267;-63
2023/06/03 03:43:36;;;;;;;10.17;9.37;;;;;;;17.77;100.00;34247.81;6244634;23;20204;-62
2023/06/03 03:46:03;;;;;;;10.43;9.40;;;;;;;17.82;100.00;47012.78;6244727;23;20157;-62
2023/06/03 03:48:31;;;;;;;9.87;8.90;;;;;;;17.86;100.00;63450.44;6244715;23;20240;-62
2023/06/03 03:50:58;;;;;;;9.60;7.90;;;;;;;17.85;100.00;72025.72;6244608;23;20612;-63
2023/06/03 03:53:28;;;;;;;7.57;6.60;;;;;;;18.04;100.00;76016.84;6244591;23;20157;-63
2023/06/03 03:55:57;;;;;;;7.20;6.57;;;;;;;18.09;100.00;77677.16;6244796;23;20215;-63
2023/06/03 03:58:28;;;;;;;10.10;7.23;;;;;;;18.15;100.00;80666.13;6244960;23;20161;-62
2023/06/03 04:00:57;;;;;;;11.80;6.93;;;;;;;18.32;100.00;83672.53;6245133;23;20643;-63
2023/06/03 04:03:25;;;;;;;7.37;6.80;;;;;;;18.48;100.00;94660.72;6245098;23;20469;-62
2023/06/03 04:05:52;;;;;;;10.20;7.77;;;;;;;18.66;100.00;110371.78;6245124;23;20157;-62
2023/06/03 04:08:38;;;;;;;9.87;9.10;;;;;;;18.68;100.00;104026.31;6244837;23;20157;-62
2023/06/03 04:11:05;;;;;;;9.40;8.73;;;;;;;18.88;100.00;105730.72;6244673;23;20207;-62
2023/06/03 04:13:37;;;;;;;11.93;8.67;;;;;;;19.19;100.00;118510.97;6244793;23;20557;-62
2023/06/03 04:16:07;;;;;;;10.53;9.07;;;;;;;19.25;100.00;133988.94;6244796;23;20675;-62
2023/06/03 04:18:40;;;;;;;13.57;9.57;;;;;;;19.33;100.00;150895.41;6244714;23;20157;-63
2023/06/03 04:21:07;;;;;;;12.93;10.00;;;;;;;19.58;100.00;150960.38;6244841;23;20180;-63
2023/06/03 04:23:34;;;;;;;9.80;9.17;;;;;;;19.64;100.00;150973.09;6244862;23;20478;-62
2023/06/03 04:26:02;;;;;;;14.90;9.13;;;;;;;19.57;100.00;150957.81;6244811;23;20551;-63
2023/06/03 04:28:29;;;;;;;11.07;10.37;;;;;;;19.57;100.00;150956.53;6244349;23;20164;-63
2023/06/03 04:30:58;;;;;;;16.50;13.27;;;;;;;19.50;100.00;150940.00;6244138;23;20153;-62
2023/06/03 04:33:24;;;;;;;27.40;15.90;;;;;;;19.86;100.00;151029.13;6244224;23;20213;-62
2023/06/03 04:35:51;;;;;;;22.63;18.17;;;;;;;20.05;100.00;151077.47;6244028;23;20157;-62
2023/06/03 04:38:18;;;;;;;44.53;23.40;;;;;;;20.18;100.00;151110.59;6244852;23;20494;-63
2023/06/03 04:40:46;;;;;;;28.87;21.93;;;;;;;20.28;100.00;151136.06;6244816;23;20203;-64
2023/06/03 04:43:14;;;;;;;32.17;21.43;;;;;;;20.37;100.00;151159.00;6244303;23;20207;-62
2023/06/03 04:45:44;;;;;;;31.87;18.73;;;;;;;20.59;100.00;151213.75;6244058;23;20157;-62
2023/06/03 04:48:13;;;;;;;14.20;12.80;;;;;;;20.44;100.00;151175.56;6244204;23;20161;-62
2023/06/03 04:50:43;;;;;;;17.57;12.30;;;;;;;20.63;100.00;151222.66;6244256;23;20153;-63
2023/06/03 04:53:11;;;;;;;12.50;11.30;;;;;;;20.73;100.00;151248.16;6244068;23;20172;-62
2023/06/03 04:55:38;;;;;;;18.60;11.05;;;;;;;20.83;100.00;151273.66;6243846;23;20240;-62
2023/06/03 04:58:05;;;;;;;14.20;11.43;;;;;;;20.76;100.00;151255.78;6243979;23;20200;-63
2023/06/03 05:00:32;;;;;;;13.27;11.93;;;;;;;20.66;100.00;151231.63;6244373;23;20177;-62
2023/06/03 05:02:59;;;;;;;15.13;12.38;;;;;;;20.43;100.00;151173.00;6244529;23;20604;-63
2023/06/03 05:05:28;;;;;;;16.10;13.70;;;;;;;20.78;100.00;151260.91;6244347;23;20215;-64
2023/06/03 05:07:55;;;;;;;19.40;14.10;;;;;;;20.89;100.00;151288.91;6244210;23;20474;-63
2023/06/03 05:10:22;;;;;;;25.23;16.38;;;;;;;21.19;100.00;151365.41;6244325;23;20161;-63
2023/06/03 05:12:49;;;;;;;26.07;19.83;;;;;;;21.31;100.00;151395.97;6244240;23;20161;-62
2023/06/03 05:15:16;;;;;;;43.17;22.00;;;;;;;21.29;100.00;151390.91;6244606;23;20157;-63
2023/06/03 05:17:43;;;;;;;33.80;21.77;;;;;;;21.53;100.00;151449.50;6244036;23;20203;-62
2023/06/03 05:20:11;;;;;;;29.80;23.30;;;;;;;21.77;100.00;151510.66;6244525;23;20157;-63
2023/06/03 05:22:39;;;;;;;33.60;21.88;;;;;;;21.85;100.00;151532.34;6244340;23;20157;-62
2023/06/03 05:25:07;;;;;;;47.63;26.58;;;;;;;22.11;100.00;151597.41;6243898;23;20164;-62
2023/06/03 05:27:34;;;;;;;51.95;27.35;;;;;;;22.36;100.00;151658.66;6244150;23;20157;-62
2023/06/03 05:30:01;;;;;;;36.08;24.88;;;;;;;22.55;100.00;151708.38;6244096;23;20163;-62
2023/06/03 05:32:28;;;;;;;39.53;24.58;;;;;;;22.69;100.00;151742.84;6244185;23;20184;-62
2023/06/03 05:34:55;;;;;;;46.40;24.83;;;;;;;22.86;100.00;151786.22;6244177;23;20465;-62
2023/06/03 05:37:22;;;;;;;31.35;22.33;;;;;;;23.05;100.00;151833.41;6243894;23;20192;-62
2023/06/03 05:39:50;;;;;;;48.60;24.75;;;;;;;23.12;100.00;151852.56;6244272;23;20584;-63
2023/06/03 05:42:17;;;;;;;34.83;26.13;;;;;;;23.17;100.00;151864.00;6244013;23;20208;-62
2023/06/03 05:44:44;;;;;;;34.05;25.50;;;;;;;23.09;100.00;151844.88;6243904;23;20157;-62
2023/06/03 05:47:11;;;;;;;36.22;24.52;;;;;;;23.35;100.00;151909.97;6244513;23;20673;-62
2023/06/03 05:49:38;;;;;;;24.38;20.63;;;;;;;23.33;100.00;151903.59;6245865;23;20239;-63
2023/06/03 05:52:05;;;;;;;29.00;21.02;;;;;;;23.53;100.00;151954.69;6245791;23;20159;-62
2023/06/03 05:54:32;;;;;;;32.30;22.92;;;;;;;23.52;100.00;151952.13;6246123;23;20473;-62
2023/06/03 05:57:00;;;;;;;32.67;23.08;;;;;;;23.48;100.00;151941.91;6245747;23;20161;-63
2023/06/03 05:59:27;;;;;;;26.48;21.58;;;;;;;23.66;100.00;151987.88;6246098;23;20461;-62
2023/06/03 06:01:54;;;;;;;27.83;21.58;;;;;;;23.71;100.00;152000.66;6245585;23;20187;-63
2023/06/03 06:04:21;;;;;;;28.30;20.23;;;;;;;23.90;100.00;152049.13;6245703;23;20167;-62
2023/06/03 06:06:50;;;;;;;24.42;20.73;;;;;;;23.89;100.00;152045.31;6245999;23;20161;-62
2023/06/03 06:09:17;;;;;;;27.67;21.55;;;;;;;24.17;100.00;152116.84;6245744;23;20160;-63
2023/06/03 06:11:43;;;;;;;27.65;20.55;;;;;;;24.32;100.00;152153.84;6245896;23;20153;-62
2023/06/03 06:14:12;;;;;;;22.15;19.90;;;;;;;24.40;100.00;152175.56;6245471;23;20248;-62
2023/06/03 06:16:39;;;;;;;26.95;19.88;;;;;;;24.53;100.00;152207.47;6245866;23;20497;-63
2023/06/03 06:19:06;;;;;;;25.50;19.48;;;;;;;24.00;100.00;152074.69;6245414;23;20161;-62
2023/06/03 06:21:33;;;;;;;27.33;19.85;;;;;;;24.16;100.00;152114.28;6245350;23;20196;-62
2023/06/03 06:24:00;;;;;;;32.35;20.17;;;;;;;24.12;100.00;152105.31;6245856;23;20592;-62
2023/06/03 06:26:27;;;;;;;27.23;18.90;;;;;;;24.08;100.00;152093.81;6245726;23;20156;-64
2023/06/03 06:28:55;;;;;;;29.52;19.88;;;;;;;24.14;100.00;152109.16;6245808;23;20260;-62
2023/06/03 06:31:23;;;;;;;31.35;18.27;;;;;;;24.11;100.00;152101.47;6245403;23;20189;-63
2023/06/03 06:33:50;;;;;;;19.63;16.92;;;;;;;24.26;100.00;152139.84;6245313;23;20163;-63
2023/06/03 06:36:40;;;;;;;26.70;18.77;;;;;;;24.29;100.00;152147.47;6245428;23;20157;-63
2023/06/03 06:39:36;;;;;;;18.85;17.13;;;;;;;24.45;100.00;152187.06;6245299;23;20236;-63
2023/06/03 06:42:10;;;;;;;31.33;17.85;;;;;;;24.51;100.00;152203.69;6244765;22;20196;-62
2023/06/03 06:44:45;;;;;;;32.30;18.88;;;;;;;24.55;100.00;152212.59;6245384;23;20156;-63
2023/06/03 06:47:17;;;;;;;36.50;19.20;;;;;;;24.62;100.00;152230.47;6245272;23;20607;-62
2023/06/03 06:49:44;;;;;;;22.55;17.27;;;;;;;25.24;100.00;152386.38;6245602;23;20588;-63
2023/06/03 06:52:13;;;;;;;29.00;14.20;;;;;;;25.32;100.00;152408.13;6245183;23;20195;-63
2023/06/03 06:54:40;;;;;;;26.65;13.80;;;;;;;25.21;100.00;152378.69;6245254;23;20196;-63
2023/06/03 06:57:06;;;;;;;23.85;12.93;;;;;;;25.58;100.00;152473.34;6245534;23;20519;-63
2023/06/03 06:59:34;;;;;;;9.07;8.30;;;;;;;25.76;100.00;152518.03;6245204;23;20167;-63
2023/06/03 07:02:01;;;;;;;10.52;6.38;;;;;;;25.57;100.00;152470.75;6244969;23;20181;-64
2023/06/03 07:04:29;;;;;;;13.93;9.05;;;;;;;25.81;100.00;152532.09;6245094;23;20203;-63
2023/06/03 07:06:56;;;;;;;11.43;7.45;;;;;;;26.00;100.00;152579.41;6245364;23;20608;-63
2023/06/03 07:09:23;;;;;;;16.63;7.70;;;;;;;26.13;100.00;152611.38;6245042;23;20157;-62
2023/06/03 07:11:50;;;;;;;9.60;8.50;;;;;;;26.43;100.00;152686.84;6245389;23;20153;-63
2023/06/03 07:14:17;;;;;;;7.05;6.50;;;;;;;26.52;100.00;152711.09;6245307;23;20171;-63
2023/06/03 07:16:44;;;;;;;9.85;7.72;;;;;;;26.61;100.00;152734.13;6245125;23;20157;-63
2023/06/03 07:19:11;;;;;;;18.85;7.40;;;;;;;26.74;100.00;152767.38;6245230;23;20161;-63
2023/06/03 07:21:40;;;;;;;13.80;8.52;;;;;;;26.78;100.00;152777.59;6244715;23;20303;-63
2023/06/03 07:24:08;;;;;;;11.57;7.45;;;;;;;27.00;100.00;152832.66;6245275;23;20618;-63
2023/06/03 07:26:35;;;;;;;11.93;8.23;;;;;;;27.00;100.00;152831.38;6244897;23;20199;-63
2023/06/03 07:29:04;;;;;;;10.20;7.88;;;;;;;27.26;100.00;152897.91;6244851;23;20161;-62
2023/06/03 07:31:32;;;;;;;8.73;7.95;;;;;;;27.21;100.00;152886.38;6244953;23;20268;-63
2023/06/03 07:33:59;;;;;;;7.38;6.75;;;;;;;27.34;100.00;152918.38;6244739;23;20161;-63
2023/06/03 07:36:27;;;;;;;10.55;7.80;;;;;;;27.35;100.00;152919.66;6245168;23;20584;-63
2023/06/03 07:39:04;;;;;;;15.00;7.45;;;;;;;26.77;100.00;152775.09;6245083;23;20164;-63
2023/06/03 07:41:36;;;;;;;11.25;7.43;;;;;;;27.22;100.00;152887.66;6244421;23;20223;-63
2023/06/03 07:44:06;;;;;;;29.17;8.23;;;;;;;27.38;100.00;152928.59;6244560;23;20197;-64
2023/06/03 07:46:38;;;;;;;14.68;7.40;;;;;;;27.27;100.00;152900.47;6244903;23;20179;-65
2023/06/03 07:49:07;;;;;;;12.77;7.78;;;;;;;27.32;100.00;152913.28;6244806;23;20491;-63
2023/06/03 07:51:35;;;;;;;10.40;7.93;;;;;;;27.41;100.00;152936.31;6245034;23;20157;-64
2023/06/03 07:54:05;;;;;;;21.13;9.25;;;;;;;27.47;100.00;152951.69;6244879;23;20481;-63
2023/06/03 07:56:33;;;;;;;16.67;9.43;;;;;;;27.26;100.00;152897.91;6244531;23;20161;-63
2023/06/03 07:59:03;;;;;;;9.23;8.10;;;;;;;27.18;100.00;152877.44;6244881;23;20156;-64
2023/06/03 08:01:30;;;;;;;10.50;7.35;;;;;;;27.12;100.00;152862.06;6244633;23;20181;-63
2023/06/03 08:03:57;;;;;;;17.73;9.38;;;;;;;26.92;100.00;152810.91;6244893;23;20210;-63
2023/06/03 08:06:27;;;;;;;13.00;7.50;;;;;;;27.24;100.00;152892.81;6244634;23;20161;-63
2023/06/03 08:08:56;;;;;;;13.88;7.90;;;;;;;27.23;100.00;152890.25;6244685;23;20610;-64
2023/06/03 08:11:25;;;;;;;14.88;8.93;;;;;;;27.66;100.00;153000.34;6244635;23;20516;-64
2023/06/03 08:13:54;;;;;;;13.38;8.43;;;;;;;27.71;100.00;153011.81;6244347;23;20167;-63
2023/06/03 08:16:21;;;;;;;14.13;10.30;;;;;;;27.91;100.00;153063.03;6244464;23;20154;-64
2023/06/03 08:18:50;;;;;;;15.70;10.27;;;;;;;28.09;100.00;153109.13;6244795;23;20167;-63
2023/06/03 08:21:18;;;;;;;9.25;8.45;;;;;;;28.21;100.00;153137.31;6244126;23;20231;-64
2023/06/03 08:23:46;;;;;;;13.93;8.38;;;;;;;28.07;100.00;153103.97;6244647;23;20315;-63
2023/06/03 08:26:13;;;;;;;9.32;8.50;;;;;;;27.85;100.00;153046.38;6244567;23;20180;-63
2023/06/03 08:28:43;;;;;;;16.40;8.80;;;;;;;27.75;100.00;153020.81;6244626;23;20488;-63
2023/06/03 08:31:10;;;;;;;15.82;8.85;;;;;;;27.93;100.00;153066.84;6244461;23;20164;-63
2023/06/03 08:33:37;;;;;;;12.43;9.63;;;;;;;28.02;100.00;153089.88;6244352;23;20168;-64
2023/06/03 08:36:04;;;;;;;13.02;8.15;;;;;;;28.13;100.00;153119.34;6244483;23;20618;-63
2023/06/03 08:38:31;;;;;;;14.30;9.55;;;;;;;28.43;100.00;153193.66;6244198;23;20164;-63
2023/06/03 08:40:59;;;;;;;13.73;9.38;;;;;;;28.91;100.00;153316.59;6244688;23;20157;-63
2023/06/03 08:43:34;;;;;;;14.27;9.32;;;;;;;29.37;100.00;153433.19;6244076;23;20570;-64
2023/06/03 08:46:10;;;;;;;19.10;9.32;;;;;;;29.30;100.00;153415.25;6244178;23;20161;-64
2023/06/03 08:48:48;;;;;;;9.35;8.40;;;;;;;29.30;100.00;153415.25;6217580;23;20152;-64
2023/06/03 08:51:16;;;;;;;15.48;8.88;;;;;;;29.58;100.00;153485.69;6244361;23;20253;-64
2023/06/03 08:53:48;;;;;;;12.00;8.05;;;;;;;30.04;100.00;153601.09;6243934;23;20172;-63
2023/06/03 08:56:17;;;;;;;13.68;10.98;;;;;;;29.74;100.00;153525.44;6243941;23;20160;-63
2023/06/03 08:58:47;;;;;;;22.42;9.13;;;;;;;29.53;99.72;153472.94;6244318;23;20157;-63
2023/06/03 09:01:17;;;;;;;9.15;8.30;;;;;;;29.24;99.39;153398.59;6243865;23;20156;-64
2023/06/03 09:03:44;;;;;;;10.63;6.82;;;;;;;29.54;100.00;153475.44;6243824;23;20223;-64
2023/06/03 09:06:12;;;;;;;7.30;5.65;;;;;;;28.90;100.00;153312.72;6244074;23;20157;-64
2023/06/03 09:08:40;;;;;;;5.85;5.35;;;;;;;28.86;100.00;153302.50;6243976;23;20156;-64
2023/06/03 09:11:11;;;;;;;6.88;5.78;;;;;;;28.52;100.00;153217.94;6243981;23;20157;-64
2023/06/03 09:13:39;;;;;;;6.15;5.45;;;;;;;27.87;100.00;153051.50;6243840;23;20160;-63
2023/06/03 09:16:08;;;;;;;6.30;5.13;;;;;;;27.98;100.00;153079.66;6243921;23;20161;-64
2023/06/03 09:18:37;;;;;;;5.13;4.70;;;;;;;27.86;100.00;153048.94;6243850;23;20240;-63
2023/06/03 09:21:08;;;;;;;5.18;4.85;;;;;;;27.87;100.00;153051.50;6244670;23;20157;-64
2023/06/03 09:23:35;;;;;;;7.97;4.65;;;;;;;27.50;100.00;152959.34;6246289;23;20176;-64
2023/06/03 09:26:03;;;;;;;8.38;5.63;;;;;;;27.51;100.00;152960.63;6246431;23;20203;-64
2023/06/03 09:28:31;;;;;;;4.53;4.28;;;;;;;27.54;100.00;152968.34;6245905;23;20157;-63
2023/06/03 09:30:57;;;;;;;5.80;4.25;;;;;;;27.61;100.00;152987.53;6246235;23;20410;-64
2023/06/03 09:33:24;;;;;;;3.97;3.75;;;;;;;27.58;100.00;152979.81;6246186;23;20473;-63
2023/06/03 09:36:10;;;;;;;3.92;3.55;;;;;;;27.79;100.00;153032.31;6246213;23;20163;-63
2023/06/03 09:38:47;;;;;;;4.35;3.92;;;;;;;28.00;100.00;153084.78;6245928;23;20156;-63
2023/06/03 09:41:16;;;;;;;4.60;4.22;;;;;;;28.17;99.57;153128.34;6246222;23;20244;-63
2023/06/03 09:43:54;;;;;;;3.63;3.35;;;;;;;28.36;94.98;153175.69;6245392;23;20208;-64
2023/06/03 09:46:21;;;;;;;4.57;4.25;;;;;;;28.03;100.00;153093.75;6245639;23;20163;-64
2023/06/03 09:48:47;;;;;;;4.55;4.15;;;;;;;27.79;100.00;153031.03;6246150;23;20179;-64
2023/06/03 09:51:16;;;;;;;7.50;4.18;;;;;;;28.04;100.00;153095.03;6246086;23;20256;-64
2023/06/03 09:53:43;;;;;;;7.53;5.10;;;;;;;28.01;100.00;153087.31;6246096;23;20165;-64
2023/06/03 09:56:23;;;;;;;4.93;4.60;;;;;;;27.88;100.00;153054.06;6245551;23;20169;-63
2023/06/03 09:58:52;;;;;;;4.53;4.20;;;;;;;27.43;100.00;152940.13;6245964;23;20551;-64
2023/06/03 10:01:31;;;;;;;3.70;3.60;;;;;;;27.40;83.94;152932.47;6246023;23;20542;-64
2023/06/03 10:03:58;;;;;;;3.60;3.00;;;;;;;27.26;88.00;152897.91;6246044;23;20555;-63
2023/06/03 10:06:27;;;;;;;3.95;3.67;;;;;;;27.57;84.04;152977.28;6245515;23;20161;-63
2023/06/03 10:08:54;;;;;;;4.55;4.30;;;;;;;27.77;87.94;153025.91;6245916;23;20157;-64
2023/06/03 10:11:23;;;;;;;5.88;3.40;;;;;;;27.71;61.86;153013.09;6245931;23;20584;-64
2023/06/03 10:14:04;;;;;;;3.55;3.35;;;;;;;27.63;80.66;152991.34;6245901;23;20161;-64
2023/06/03 10:16:31;;;;;;;4.60;2.97;;;;;;;27.05;65.89;152845.47;6245422;23;20173;-64
2023/06/03 10:18:58;;;;;;;4.38;3.97;;;;;;;27.34;100.00;152918.38;6219219;23;20216;-63
2023/06/03 10:21:29;;;;;;;4.82;4.00;;;;;;;27.40;95.21;152932.47;6245468;23;20163;-64
2023/06/03 10:24:01;;;;;;;6.55;3.17;;;;;;;27.32;85.53;152913.28;6245845;23;20188;-64
2023/06/03 10:26:30;;;;;;;3.60;3.33;;;;;;;27.32;84.69;152912.00;6245686;23;20658;-63
2023/06/03 10:28:59;;;;;;;3.53;3.22;;;;;;;27.00;92.58;152831.38;6245322;23;20161;-63
2023/06/03 10:31:27;;;;;;;4.25;3.95;;;;;;;27.24;88.54;152894.03;6218948;23;20669;-63
2023/06/03 10:33:55;;;;;;;4.45;3.55;;;;;;;27.33;92.65;152915.78;6245129;23;20167;-63
2023/06/03 10:36:24;;;;;;;6.00;3.50;;;;;;;27.18;89.93;152877.44;6245535;23;20157;-63
2023/06/03 10:38:53;;;;;;;3.22;3.03;;;;;;;27.11;84.10;152859.53;6245670;23;20159;-63
2023/06/03 10:41:21;;;;;;;3.65;3.40;;;;;;;27.22;88.88;152888.97;6245647;23;20185;-64
2023/06/03 10:43:50;;;;;;;3.60;3.40;;;;;;;27.11;93.53;152860.84;6245073;23;20197;-64
2023/06/03 10:46:18;;;;;;;3.85;3.63;;;;;;;26.61;93.88;152734.13;6245124;23;20157;-64
2023/06/03 10:48:47;;;;;;;3.45;3.35;;;;;;;26.54;100.00;152716.25;6245076;23;20156;-64
2023/06/03 10:51:30;;;;;;;4.03;3.75;;;;;;;26.64;100.00;152740.56;6245577;23;20515;-63
2023/06/03 10:54:13;;;;;;;4.03;3.83;;;;;;;26.49;100.00;152703.44;6245296;23;20159;-64
2023/06/03 10:56:47;;;;;;;4.50;3.60;;;;;;;26.07;100.00;152596.00;6245023;23;20232;-64
2023/06/03 10:59:23;;;;;;;3.67;3.47;;;;;;;26.43;100.00;152686.84;6245353;23;20159;-63
2023/06/03 11:01:58;;;;;;;5.13;3.90;;;;;;;26.51;100.00;152708.59;6245024;23;20244;-63
2023/06/03 11:04:27;;;;;;;3.72;3.53;;;;;;;26.50;100.00;152704.72;6244886;23;20175;-63
2023/06/03 11:06:54;;;;;;;3.60;3.33;;;;;;;26.46;94.41;152694.50;6245449;23;20591;-63
2023/06/03 11:09:34;;;;;;;3.75;3.55;;;;;;;26.55;100.00;152717.53;6245496;23;20540;-64
2023/06/03 11:12:09;;;;;;;3.58;3.38;;;;;;;26.40;100.00;152679.13;6244944;23;20188;-63
2023/06/03 11:14:54;;;;;;;4.75;3.70;;;;;;;26.15;100.00;152616.44;6220449;23;20160;-63
2023/06/03 11:17:26;;;;;;;6.28;4.72;;;;;;;25.97;100.00;152570.47;6245373;23;20592;-63
2023/06/03 11:19:55;;;;;;;5.05;3.63;;;;;;;25.82;100.00;152534.66;6245545;23;20171;-63